createdAt,value
2022-09-18T00:01:31.936Z,15.50
2022-09-18T00:04:05.181Z,15.47
2022-09-18T00:06:37.003Z,15.41
2022-09-18T00:09:08.238Z,15.52
2022-09-18T00:11:38.246Z,15.53
2022-09-18T00:14:07.477Z,15.58
2022-09-18T00:16:34.640Z,15.59
2022-09-18T00:19:01.895Z,15.64
2022-09-18T00:21:29.711Z,15.63
2022-09-18T00:23:59.581Z,15.57
2022-09-18T00:26:26.896Z,15.54
2022-09-18T00:28:54.989Z,15.54
2022-09-18T00:31:30.926Z,15.64
2022-09-18T00:33:59.422Z,15.60
2022-09-18T00:36:26.796Z,15.58
2022-09-18T00:38:56.641Z,15.60
2022-09-18T00:41:29.951Z,15.53
2022-09-18T00:44:28.493Z,15.65
2022-09-18T00:47:03.465Z,15.60
2022-09-18T00:49:30.548Z,15.57
2022-09-18T00:51:59.148Z,15.56
2022-09-18T00:54:31.646Z,15.62
2022-09-18T00:57:02.337Z,15.64
2022-09-18T00:59:32.195Z,15.68
2022-09-18T01:02:00.288Z,15.59
2022-09-18T01:04:29.344Z,15.47
2022-09-18T01:07:01.573Z,15.63
2022-09-18T01:09:54.469Z,15.60
2022-09-18T01:12:39.588Z,15.63
2022-09-18T01:15:09.317Z,15.68
2022-09-18T01:17:35.902Z,15.52
2022-09-18T01:20:20.948Z,15.63
2022-09-18T01:22:54.573Z,15.76
2022-09-18T01:25:42.969Z,15.76
2022-09-18T01:28:38.459Z,15.62
2022-09-18T01:31:13.443Z,15.58
2022-09-18T01:33:52.566Z,15.56
2022-09-18T01:36:24.158Z,15.55
2022-09-18T01:39:01.912Z,15.55
2022-09-18T01:41:30.219Z,15.51
2022-09-18T01:44:03.693Z,15.38
2022-09-18T01:46:30.758Z,15.34
2022-09-18T01:49:04.439Z,15.37
2022-09-18T01:51:47.246Z,15.43
2022-09-18T01:54:22.869Z,15.56
2022-09-18T01:56:57.341Z,15.62
2022-09-18T01:59:36.725Z,15.59
2022-09-18T02:02:14.860Z,15.57
2022-09-18T02:04:44.527Z,15.47
2022-09-18T02:07:35.736Z,15.55
2022-09-18T02:10:05.771Z,15.61
2022-09-18T02:12:36.465Z,15.54
2022-09-18T02:15:10.447Z,15.46
2022-09-18T02:17:56.392Z,15.40
2022-09-18T02:20:30.472Z,15.49
2022-09-18T02:23:03.570Z,15.41
2022-09-18T02:25:36.983Z,15.46
2022-09-18T02:28:06.873Z,15.39
2022-09-18T02:30:34.524Z,15.33
2022-09-18T02:33:01.331Z,15.38
2022-09-18T02:35:42.873Z,15.36
2022-09-18T02:38:29.515Z,15.28
2022-09-18T02:41:07.911Z,15.34
2022-09-18T02:44:01.957Z,15.30
2022-09-18T02:46:55.268Z,15.21
2022-09-18T02:49:54.523Z,15.36
2022-09-18T02:52:29.779Z,15.28
2022-09-18T02:55:08.337Z,15.26
2022-09-18T02:57:44.041Z,15.24
2022-09-18T03:00:16.927Z,15.27
2022-09-18T03:02:45.961Z,15.28
2022-09-18T03:05:14.628Z,15.24
2022-09-18T03:08:01.003Z,15.25
2022-09-18T03:10:29.210Z,15.22
2022-09-18T03:12:56.988Z,15.24
2022-09-18T03:15:23.733Z,15.32
2022-09-18T03:17:51.272Z,15.40
2022-09-18T03:20:18.746Z,15.45
2022-09-18T03:22:46.288Z,15.54
2022-09-18T03:25:14.489Z,15.60
2022-09-18T03:27:43.840Z,15.51
2022-09-18T03:30:15.324Z,15.54
2022-09-18T03:32:42.592Z,15.55
2022-09-18T03:35:10.707Z,15.61
2022-09-18T03:37:42.342Z,15.54
2022-09-18T03:40:11.949Z,15.62
2022-09-18T03:42:46.671Z,15.56
2022-09-18T03:45:18.782Z,15.56
2022-09-18T03:47:46.950Z,15.47
2022-09-18T03:50:16.352Z,15.43
2022-09-18T03:52:50.434Z,15.55
2022-09-18T03:55:38.803Z,15.47
2022-09-18T03:58:22.458Z,15.50
2022-09-18T04:01:15.966Z,15.34
2022-09-18T04:04:04.321Z,15.45
2022-09-18T04:06:55.443Z,15.53
2022-09-18T04:09:40.791Z,15.67
2022-09-18T04:12:07.669Z,15.60
2022-09-18T04:14:34.723Z,15.61
2022-09-18T04:17:01.497Z,15.56
2022-09-18T04:19:29.816Z,15.53
2022-09-18T04:21:57.630Z,15.56
2022-09-18T04:24:26.095Z,15.52
2022-09-18T04:26:52.897Z,15.50
2022-09-18T04:29:22.844Z,15.52
2022-09-18T04:31:50.879Z,15.47
2022-09-18T04:34:25.586Z,15.44
2022-09-18T04:36:53.441Z,15.34
2022-09-18T04:39:20.375Z,15.49
2022-09-18T04:41:47.685Z,15.34
2022-09-18T04:44:14.524Z,15.38
2022-09-18T04:46:43.409Z,15.25
2022-09-18T04:49:10.773Z,15.23
2022-09-18T04:51:38.332Z,15.29
2022-09-18T04:54:05.860Z,15.24
2022-09-18T04:56:36.298Z,14.96
2022-09-18T04:59:03.609Z,15.03
2022-09-18T05:01:30.546Z,14.97
2022-09-18T05:03:59.566Z,14.86
2022-09-18T05:06:37.727Z,14.80
2022-09-18T05:09:04.491Z,14.78
2022-09-18T05:11:31.201Z,14.72
2022-09-18T05:13:58.147Z,14.90
2022-09-18T05:16:27.664Z,14.81
2022-09-18T05:19:13.003Z,14.83
2022-09-18T05:21:39.962Z,14.64
2022-09-18T05:24:14.017Z,14.59
2022-09-18T05:26:41.589Z,14.52
2022-09-18T05:29:08.468Z,14.54
2022-09-18T05:31:35.267Z,14.54
2022-09-18T05:34:02.248Z,14.49
2022-09-18T05:36:28.951Z,14.49
2022-09-18T05:38:55.713Z,14.47
2022-09-18T05:41:23.814Z,14.61
2022-09-18T05:43:51.012Z,14.64
2022-09-18T05:46:17.851Z,14.80
2022-09-18T05:48:50.498Z,14.71
2022-09-18T05:51:18.746Z,14.83
2022-09-18T05:53:48.513Z,14.96
2022-09-18T05:56:30.523Z,15.13
2022-09-18T05:58:57.219Z,15.21
2022-09-18T06:01:24.156Z,15.40
2022-09-18T06:04:09.264Z,15.33
2022-09-18T06:06:51.295Z,15.53
2022-09-18T06:09:18.505Z,15.69
2022-09-18T06:11:45.191Z,15.87
2022-09-18T06:14:11.876Z,15.94
2022-09-18T06:16:42.100Z,16.05
2022-09-18T06:19:10.264Z,16.03
2022-09-18T06:21:37.298Z,16.04
2022-09-18T06:24:06.474Z,16.04
2022-09-18T06:26:39.444Z,16.07
2022-09-18T06:29:06.611Z,16.12
2022-09-18T06:31:44.415Z,16.22
2022-09-18T06:34:15.219Z,16.33
2022-09-18T06:36:44.558Z,16.58
2022-09-18T06:39:24.725Z,17.24
2022-09-18T06:41:56.112Z,18.36
2022-09-18T06:44:47.099Z,19.82
2022-09-18T06:47:15.336Z,21.16
2022-09-18T06:49:45.224Z,22.41
2022-09-18T06:52:11.890Z,23.12
2022-09-18T06:54:39.692Z,23.36
2022-09-18T06:57:10.263Z,24.51
2022-09-18T06:59:38.280Z,24.98
2022-09-18T07:02:17.271Z,25.67
2022-09-18T07:05:14.556Z,26.47
2022-09-18T07:07:45.604Z,25.81
2022-09-18T07:10:12.386Z,26.14
2022-09-18T07:12:48.384Z,26.20
2022-09-18T07:15:19.146Z,26.86
2022-09-18T07:17:46.145Z,27.04
2022-09-18T07:20:15.777Z,27.39
2022-09-18T07:22:47.394Z,27.62
2022-09-18T07:25:14.957Z,28.36
2022-09-18T07:27:43.440Z,28.77
2022-09-18T07:30:11.907Z,29.57
2022-09-18T07:32:38.605Z,30.11
2022-09-18T07:35:11.970Z,29.71
2022-09-18T07:37:39.259Z,30.00
2022-09-18T07:40:19.694Z,28.56
2022-09-18T07:43:13.470Z,27.26
2022-09-18T07:45:49.010Z,26.16
2022-09-18T07:48:16.306Z,25.82
2022-09-18T07:50:47.072Z,26.61
2022-09-18T07:53:15.142Z,26.76
2022-09-18T07:55:47.082Z,26.96
2022-09-18T07:58:14.648Z,27.51
2022-09-18T08:01:02.381Z,28.91
2022-09-18T08:03:30.703Z,29.13
2022-09-18T08:06:08.621Z,30.15
2022-09-18T08:08:38.853Z,30.64
2022-09-18T08:11:34.498Z,31.16
2022-09-18T08:14:23.404Z,31.80
2022-09-18T08:17:08.356Z,31.10
2022-09-18T08:19:58.452Z,30.92
2022-09-18T08:22:45.929Z,30.94
2022-09-18T08:25:13.896Z,31.00
2022-09-18T08:27:44.449Z,32.33
2022-09-18T08:30:13.752Z,33.22
2022-09-18T08:32:41.793Z,33.80
2022-09-18T08:35:10.981Z,34.19
2022-09-18T08:37:38.331Z,34.48
2022-09-18T08:40:42.870Z,34.07
2022-09-18T08:43:29.649Z,32.21
2022-09-18T08:46:08.648Z,29.54
2022-09-18T08:48:45.484Z,28.99
2022-09-18T08:51:21.435Z,27.24
2022-09-18T08:53:54.488Z,26.91
2022-09-18T08:56:25.972Z,26.15
2022-09-18T08:59:55.055Z,25.26
2022-09-18T09:02:31.013Z,24.61
2022-09-18T09:05:03.720Z,24.16
2022-09-18T09:07:31.737Z,23.69
2022-09-18T09:12:44.567Z,23.37
2022-09-18T09:15:53.417Z,23.56
2022-09-18T09:18:42.554Z,23.80
2022-09-18T09:21:21.726Z,23.91
2022-09-18T09:24:21.049Z,24.27
2022-09-18T09:27:17.716Z,25.96
2022-09-18T09:30:20.582Z,28.57
2022-09-18T09:33:19.496Z,29.14
2022-09-18T09:36:11.785Z,29.73
2022-09-18T09:39:06.214Z,30.72
2022-09-18T09:41:45.037Z,31.91
2022-09-18T09:44:14.686Z,31.05
2022-09-18T09:47:19.236Z,31.47
2022-09-18T09:50:15.041Z,31.95
2022-09-18T09:52:46.551Z,31.74
2022-09-18T09:55:26.487Z,31.54
2022-09-18T09:58:04.504Z,32.06
2022-09-18T10:00:44.375Z,31.36
2022-09-18T10:03:42.698Z,31.15
2022-09-18T10:06:17.649Z,31.34
2022-09-18T10:08:59.555Z,31.25
2022-09-18T10:11:26.983Z,31.40
2022-09-18T10:14:12.792Z,30.81
2022-09-18T10:16:47.334Z,31.41
2022-09-18T10:19:17.838Z,31.70
2022-09-18T10:21:45.671Z,30.02
2022-09-18T10:24:42.679Z,28.39
2022-09-18T10:27:15.014Z,28.63
2022-09-18T10:29:43.227Z,28.39
2022-09-18T10:32:32.436Z,30.20
2022-09-18T10:35:00.946Z,30.54
2022-09-18T10:37:30.570Z,31.85
2022-09-18T10:40:02.790Z,32.92
2022-09-18T10:42:34.850Z,32.35
2022-09-18T10:45:22.758Z,31.45
2022-09-18T10:48:06.054Z,30.08
2022-09-18T10:50:34.632Z,28.87
2022-09-18T10:53:24.190Z,27.88
2022-09-18T10:55:55.825Z,27.85
2022-09-18T10:58:32.546Z,27.02
2022-09-18T11:01:07.941Z,26.22
2022-09-18T11:03:42.309Z,25.08
2022-09-18T11:06:20.456Z,24.55
2022-09-18T11:08:50.643Z,24.04
2022-09-18T11:11:30.454Z,23.70
2022-09-18T11:14:03.703Z,23.38
2022-09-18T11:16:43.666Z,23.44
2022-09-18T11:19:34.004Z,22.87
2022-09-18T11:22:27.270Z,22.05
2022-09-18T11:25:27.186Z,22.42
2022-09-18T11:28:02.601Z,22.19
2022-09-18T11:30:38.638Z,22.05
2022-09-18T11:33:24.878Z,21.94
2022-09-18T11:36:03.027Z,21.87
2022-09-18T11:38:32.603Z,22.07
2022-09-18T11:41:02.915Z,22.24
2022-09-18T11:43:39.668Z,22.28
2022-09-18T11:46:52.800Z,22.41
2022-09-18T11:49:23.922Z,22.52
2022-09-18T11:52:01.298Z,22.47
2022-09-18T11:54:43.927Z,22.82
2022-09-18T11:57:19.602Z,23.20
2022-09-18T11:59:57.421Z,23.66
2022-09-18T12:02:42.225Z,24.13
2022-09-18T12:05:29.289Z,24.20
2022-09-18T12:08:20.226Z,25.30
2022-09-18T12:11:17.528Z,25.67
2022-09-18T12:13:47.990Z,26.15
2022-09-18T12:16:24.803Z,25.82
2022-09-18T12:19:07.743Z,25.50
2022-09-18T12:21:45.184Z,24.85
2022-09-18T12:24:15.700Z,24.91
2022-09-18T12:26:56.057Z,24.44
2022-09-18T12:29:32.075Z,24.18
2022-09-18T12:32:20.624Z,23.98
2022-09-18T12:35:01.709Z,23.07
2022-09-18T12:37:53.520Z,23.27
2022-09-18T12:40:34.273Z,23.15
2022-09-18T12:43:13.229Z,23.07
2022-09-18T12:45:53.388Z,23.23
2022-09-18T12:48:31.980Z,23.10
2022-09-18T12:51:38.923Z,23.49
2022-09-18T12:54:06.710Z,23.25
2022-09-18T12:56:42.540Z,23.34
2022-09-18T12:59:22.169Z,23.39
2022-09-18T13:02:02.641Z,23.70
2022-09-18T13:04:33.421Z,23.86
2022-09-18T13:07:25.824Z,24.11
2022-09-18T13:10:01.867Z,24.04
2022-09-18T13:12:51.582Z,23.84
2022-09-18T13:15:25.664Z,23.73
2022-09-18T13:18:17.103Z,23.81
2022-09-18T13:20:46.044Z,23.66
2022-09-18T13:23:20.857Z,23.30
2022-09-18T13:25:51.600Z,23.29
2022-09-18T13:28:21.964Z,23.21
2022-09-18T13:31:14.513Z,22.80
2022-09-18T13:34:06.653Z,22.65
2022-09-18T13:36:38.674Z,22.60
2022-09-18T13:39:20.350Z,22.62
2022-09-18T13:41:51.297Z,22.65
2022-09-18T13:44:21.352Z,22.47
2022-09-18T13:46:50.382Z,22.42
2022-09-18T13:49:25.064Z,22.56
2022-09-18T13:51:56.640Z,23.14
2022-09-18T13:54:28.056Z,23.47
2022-09-18T13:57:04.957Z,23.71
2022-09-18T13:59:58.417Z,23.40
2022-09-18T14:02:29.777Z,23.11
2022-09-18T14:05:05.400Z,23.24
2022-09-18T14:07:32.060Z,23.23
2022-09-18T14:10:04.345Z,23.37
2022-09-18T14:12:35.555Z,23.19
2022-09-18T14:15:16.356Z,23.11
2022-09-18T14:18:07.814Z,23.08
2022-09-18T14:20:35.103Z,23.09
2022-09-18T14:23:45.967Z,23.07
2022-09-18T14:26:31.013Z,22.91
2022-09-18T14:29:19.677Z,23.26
2022-09-18T14:31:49.278Z,23.32
2022-09-18T14:34:34.744Z,23.43
2022-09-18T14:37:20.343Z,23.59
2022-09-18T14:39:47.417Z,23.55
2022-09-18T14:42:33.891Z,23.80
2022-09-18T14:45:12.937Z,23.59
2022-09-18T14:47:41.892Z,23.52
2022-09-18T14:50:27.295Z,23.59
2022-09-18T14:52:55.389Z,23.14
2022-09-18T14:55:33.729Z,22.97
2022-09-18T14:58:07.361Z,22.79
2022-09-18T15:00:36.506Z,22.71
2022-09-18T15:03:20.445Z,22.89
2022-09-18T15:05:51.273Z,22.92
2022-09-18T15:08:26.639Z,23.10
2022-09-18T15:10:57.845Z,23.24
2022-09-18T15:13:24.806Z,23.22
2022-09-18T15:16:01.392Z,23.03
2022-09-18T15:18:29.470Z,23.27
2022-09-18T15:20:59.275Z,23.27
2022-09-18T15:23:27.493Z,23.12
2022-09-18T15:25:57.414Z,22.72
2022-09-18T15:28:26.132Z,22.82
2022-09-18T15:30:58.057Z,22.41
2022-09-18T15:33:27.314Z,22.69
2022-09-18T15:35:55.708Z,22.36
2022-09-18T15:38:32.910Z,22.39
2022-09-18T15:41:41.303Z,22.22
2022-09-18T15:44:39.060Z,22.61
2022-09-18T15:47:29.234Z,22.56
2022-09-18T15:49:56.866Z,22.61
2022-09-18T15:52:42.104Z,22.17
2022-09-18T15:55:19.192Z,22.17
2022-09-18T15:57:55.132Z,22.02
2022-09-18T16:00:24.928Z,21.91
2022-09-18T16:02:57.975Z,21.57
2022-09-18T16:05:26.698Z,21.53
2022-09-18T16:07:59.432Z,21.44
2022-09-18T16:10:35.331Z,21.46
2022-09-18T16:13:25.866Z,21.42
2022-09-18T16:16:07.906Z,21.27
2022-09-18T16:18:49.444Z,21.00
2022-09-18T16:21:19.277Z,20.97
2022-09-18T16:23:50.631Z,20.70
2022-09-18T16:26:30.767Z,20.86
2022-09-18T16:29:02.302Z,20.80
2022-09-18T16:31:31.988Z,20.58
2022-09-18T16:34:03.723Z,20.67
2022-09-18T16:36:38.894Z,20.47
2022-09-18T16:39:08.606Z,20.46
2022-09-18T16:41:35.979Z,20.37
2022-09-18T16:44:04.293Z,20.39
2022-09-18T16:46:45.852Z,20.36
2022-09-18T16:49:18.022Z,20.38
2022-09-18T16:51:44.826Z,20.25
2022-09-18T16:54:11.559Z,20.21
2022-09-18T16:56:43.037Z,20.06
2022-09-18T16:59:10.353Z,20.18
2022-09-18T17:01:54.126Z,20.08
2022-09-18T17:04:27.009Z,20.10
2022-09-18T17:06:54.032Z,20.05
2022-09-18T17:09:23.951Z,20.11
2022-09-18T17:11:51.786Z,20.14
2022-09-18T17:14:18.589Z,20.12
2022-09-18T17:16:45.363Z,20.11
2022-09-18T17:19:13.273Z,19.85
2022-09-18T17:21:40.513Z,19.93
2022-09-18T17:24:08.105Z,19.82
2022-09-18T17:26:36.330Z,19.87
2022-09-18T17:29:04.283Z,19.52
2022-09-18T17:31:31.122Z,19.68
2022-09-18T17:33:57.981Z,19.62
2022-09-18T17:36:24.841Z,19.73
2022-09-18T17:38:51.831Z,19.51
2022-09-18T17:41:19.510Z,19.49
2022-09-18T17:43:52.221Z,19.40
2022-09-18T17:46:19.251Z,19.29
2022-09-18T17:48:46.015Z,19.33
2022-09-18T17:51:16.628Z,19.28
2022-09-18T17:53:45.225Z,19.29
2022-09-18T17:56:14.914Z,19.34
2022-09-18T17:58:43.995Z,19.24
2022-09-18T18:01:11.943Z,19.33
2022-09-18T18:03:39.289Z,19.28
2022-09-18T18:06:06.230Z,19.20
2022-09-18T18:08:33.197Z,19.23
2022-09-18T18:11:08.964Z,19.25
2022-09-18T18:13:37.279Z,19.13
2022-09-18T18:16:15.435Z,19.12
2022-09-18T18:18:43.219Z,18.93
2022-09-18T18:21:11.074Z,19.11
2022-09-18T18:23:38.434Z,19.06
2022-09-18T18:26:07.328Z,18.99
2022-09-18T18:28:35.461Z,18.86
2022-09-18T18:31:05.486Z,18.79
2022-09-18T18:33:36.169Z,18.63
2022-09-18T18:36:24.482Z,18.72
2022-09-18T18:38:53.598Z,18.67
2022-09-18T18:41:22.168Z,18.53
2022-09-18T18:43:55.337Z,18.38
2022-09-18T18:46:28.485Z,18.57
2022-09-18T18:49:02.845Z,18.58
2022-09-18T18:51:32.821Z,18.43
2022-09-18T18:54:02.724Z,18.48
2022-09-18T18:56:32.265Z,18.41
2022-09-18T18:59:01.424Z,18.47
2022-09-18T19:01:29.759Z,18.22
2022-09-18T19:03:59.908Z,18.24
2022-09-18T19:06:27.100Z,18.43
2022-09-18T19:08:59.397Z,18.34
2022-09-18T19:11:26.985Z,18.37
2022-09-18T19:13:56.727Z,18.29
2022-09-18T19:16:25.560Z,18.03
2022-09-18T19:18:59.592Z,18.12
2022-09-18T19:21:28.059Z,18.05
2022-09-18T19:23:58.898Z,18.15
2022-09-18T19:26:28.029Z,18.24
2022-09-18T19:28:57.140Z,18.20
2022-09-18T19:31:24.932Z,18.18
2022-09-18T19:33:52.505Z,18.15
2022-09-18T19:36:24.845Z,18.15
2022-09-18T19:38:52.567Z,18.12
2022-09-18T19:41:38.976Z,18.16
2022-09-18T19:44:12.665Z,18.06
2022-09-18T19:46:40.013Z,17.99
2022-09-18T19:49:15.477Z,18.03
2022-09-18T19:51:42.133Z,17.97
2022-09-18T19:54:08.818Z,17.93
2022-09-18T19:56:43.046Z,17.83
2022-09-18T19:59:10.373Z,17.89
2022-09-18T20:01:37.238Z,17.97
2022-09-18T20:04:04.435Z,18.09
2022-09-18T20:06:32.809Z,18.08
2022-09-18T20:09:00.522Z,18.09
2022-09-18T20:11:27.213Z,17.95
2022-09-18T20:13:53.902Z,18.10
2022-09-18T20:16:21.148Z,18.11
2022-09-18T20:18:48.716Z,18.04
2022-09-18T20:21:17.756Z,18.10
2022-09-18T20:23:44.923Z,18.01
2022-09-18T20:26:14.902Z,17.88
2022-09-18T20:28:42.278Z,18.06
2022-09-18T20:31:11.633Z,18.12
2022-09-18T20:33:38.424Z,18.12
2022-09-18T20:36:07.759Z,18.12
2022-09-18T20:38:36.935Z,18.28
2022-09-18T20:41:07.221Z,17.96
2022-09-18T20:43:36.305Z,17.94
2022-09-18T20:46:05.345Z,18.13
2022-09-18T20:48:39.224Z,18.21
2022-09-18T20:51:09.005Z,18.02
2022-09-18T20:53:40.958Z,18.31
2022-09-18T20:56:09.348Z,18.30
2022-09-18T20:58:39.426Z,18.32
2022-09-18T21:01:11.192Z,18.28
2022-09-18T21:03:43.329Z,18.26
2022-09-18T21:06:23.317Z,18.32
2022-09-18T21:08:53.484Z,18.36
2022-09-18T21:11:26.322Z,18.45
2022-09-18T21:13:55.765Z,18.44
2022-09-18T21:16:25.910Z,18.29
2022-09-18T21:18:55.679Z,18.23
2022-09-18T21:21:22.999Z,18.03
2022-09-18T21:24:01.255Z,18.00
2022-09-18T21:26:48.681Z,18.04
2022-09-18T21:29:20.614Z,17.87
2022-09-18T21:31:51.468Z,17.74
2022-09-18T21:34:23.750Z,17.63
2022-09-18T21:36:51.998Z,17.54
2022-09-18T21:39:18.686Z,17.41
2022-09-18T21:41:48.322Z,17.36
2022-09-18T21:44:17.796Z,17.16
2022-09-18T21:46:47.828Z,17.14
2022-09-18T21:49:16.238Z,17.17
2022-09-18T21:51:43.737Z,17.15
2022-09-18T21:54:19.108Z,17.21
2022-09-18T21:56:49.198Z,17.15
2022-09-18T21:59:15.932Z,17.11
2022-09-18T22:01:43.304Z,17.03
2022-09-18T22:04:11.045Z,17.08
2022-09-18T22:06:41.624Z,17.12
2022-09-18T22:09:14.383Z,17.03
2022-09-18T22:11:42.633Z,17.04
2022-09-18T22:14:12.823Z,16.95
2022-09-18T22:16:40.169Z,16.95
2022-09-18T22:19:10.270Z,16.95
2022-09-18T22:21:39.780Z,16.99
2022-09-18T22:24:12.126Z,17.00
2022-09-18T22:26:45.322Z,17.03
2022-09-18T22:29:21.109Z,16.99
2022-09-18T22:31:49.274Z,16.89
2022-09-18T22:34:20.488Z,16.94
2022-09-18T22:36:48.155Z,16.98
2022-09-18T22:39:16.286Z,16.92
2022-09-18T22:41:43.469Z,16.83
2022-09-18T22:44:11.049Z,16.76
2022-09-18T22:46:39.807Z,16.76
2022-09-18T22:49:08.694Z,16.75
2022-09-18T22:51:35.479Z,16.72
2022-09-18T22:54:07.430Z,16.59
2022-09-18T22:56:38.795Z,16.51
2022-09-18T22:59:05.594Z,16.46
2022-09-18T23:01:34.069Z,16.42
2022-09-18T23:04:05.210Z,16.29
2022-09-18T23:06:33.549Z,16.28
2022-09-18T23:09:00.848Z,16.23
2022-09-18T23:11:30.253Z,16.09
2022-09-18T23:14:04.362Z,16.05
2022-09-18T23:16:33.568Z,16.05
2022-09-18T23:19:03.754Z,16.00
2022-09-18T23:21:32.495Z,15.95
2022-09-18T23:24:01.458Z,15.86
2022-09-18T23:26:30.871Z,15.88
2022-09-18T23:28:58.998Z,15.82
2022-09-18T23:31:31.337Z,15.82
2022-09-18T23:34:00.371Z,15.82
2022-09-18T23:36:35.886Z,15.71
2022-09-18T23:39:24.662Z,15.71
2022-09-18T23:41:51.935Z,15.70
2022-09-18T23:44:20.919Z,15.63
2022-09-18T23:46:48.070Z,15.59
2022-09-18T23:49:15.835Z,15.57
2022-09-18T23:51:46.116Z,15.53
2022-09-18T23:54:18.578Z,15.45
2022-09-18T23:56:45.866Z,15.45
2022-09-18T23:59:14.265Z,15.43
